Time;durP1;ratioP1;P1;durP2;ratioP2;P2;SDS_P1;SDS_P2;PMS_P1;PMS_P2;Temp;Humidity;BMP_temperature;BMP_pressure;BME280_temperature;BME280_humidity;BME280_pressure;Samples;Min_cycle;Max_cycle;Signal;HPM_P1;HPM_P2
2023/06/30 00:01:17;;;;;;;15.40;7.90;;;;;;;-144.47;79.98;52601.88;5070747;28;20498;-70
2023/06/30 00:03:45;;;;;;;17.15;8.90;;;;;;;-144.47;80.53;52623.72;5070289;28;20013;-72
2023/06/30 00:06:10;;;;;;;18.17;8.57;;;;;;;-144.47;81.51;52615.78;5070247;28;20036;-70
2023/06/30 00:08:35;;;;;;;16.08;8.52;;;;;;;-144.47;82.32;52627.69;5070258;28;20028;-71
2023/06/30 00:11:01;;;;;;;17.92;8.77;;;;;;;-144.47;83.01;52637.63;5070325;28;20095;-73
2023/06/30 00:13:26;;;;;;;14.77;7.57;;;;;;;-144.47;83.14;52621.72;5069650;28;20021;-70
2023/06/30 00:15:54;;;;;;;19.45;10.02;;;;;;;-144.47;83.91;52613.78;5070368;28;20052;-71
2023/06/30 00:18:19;;;;;;;18.33;8.60;;;;;;;-144.47;84.60;52621.72;5086706;22;20048;-69
2023/06/30 00:20:45;;;;;;;17.75;8.68;;;;;;;-144.47;85.38;52629.69;5088454;28;20042;-71
2023/06/30 00:23:13;;;;;;;17.10;8.45;;;;;;;-144.47;86.10;52599.88;5069293;28;20411;-68
2023/06/30 00:25:38;;;;;;;17.63;8.85;;;;;;;-144.47;87.62;52609.81;5068382;28;20098;-67
2023/06/30 00:28:03;;;;;;;17.42;9.70;;;;;;;-144.47;88.42;52617.75;5068149;28;20406;-70
2023/06/30 00:30:29;;;;;;;16.98;9.55;;;;;;;-144.47;89.36;52611.81;5068299;28;20039;-68
2023/06/30 00:32:54;;;;;;;15.70;8.70;;;;;;;-144.47;90.04;52639.59;5064522;28;20025;-70
2023/06/30 00:35:19;;;;;;;17.63;8.77;;;;;;;-144.47;90.71;52615.78;5043771;28;20025;-70
2023/06/30 00:37:45;;;;;;;17.08;9.27;;;;;;;-144.47;90.99;52633.66;5034516;28;20020;-70
2023/06/30 00:40:11;;;;;;;19.38;9.68;;;;;;;-144.47;91.70;52585.97;5068118;28;20111;-67
2023/06/30 00:42:36;;;;;;;15.80;8.70;;;;;;;-144.47;93.02;52609.81;5068327;28;20016;-68
2023/06/30 00:45:02;;;;;;;18.27;8.82;;;;;;;-144.47;94.35;52613.78;5068295;28;20070;-70
2023/06/30 00:47:28;;;;;;;19.05;9.68;;;;;;;-144.47;95.62;52599.88;5067995;28;20067;-67
2023/06/30 00:49:53;;;;;;;17.95;9.52;;;;;;;-144.47;96.58;52617.75;5056588;28;20020;-69
2023/06/30 00:52:19;;;;;;;17.42;9.85;;;;;;;-144.47;96.69;52601.88;5042788;28;20017;-69
2023/06/30 00:54:45;;;;;;;16.80;9.95;;;;;;;-144.47;96.18;52631.66;5048766;28;20029;-69
2023/06/30 00:57:10;;;;;;;21.25;11.32;;;;;;;-144.47;94.88;52595.91;5066534;28;20020;-69
2023/06/30 00:59:35;;;;;;;21.52;10.35;;;;;;;-144.47;95.59;52607.84;5055593;28;20020;-67
2023/06/30 01:02:07;;;;;;;20.80;10.38;;;;;;;-144.47;93.94;52609.81;5047915;28;20387;-69
2023/06/30 01:05:17;;;;;;;20.23;10.60;;;;;;;-144.47;93.12;52597.91;5054660;28;20074;-69
2023/06/30 01:08:10;;;;;;;19.63;9.68;;;;;;;-144.47;92.56;52595.91;5022007;28;20404;-67
2023/06/30 01:10:38;;;;;;;21.83;10.07;;;;;;;-144.47;94.42;52597.91;5068043;28;20378;-68
2023/06/30 01:13:05;;;;;;;20.48;10.88;;;;;;;-144.47;92.95;52611.81;5054051;28;20032;-70
2023/06/30 01:15:33;;;;;;;20.23;10.32;;;;;;;-144.47;93.08;52582.00;5067268;28;20024;-66
2023/06/30 01:18:01;;;;;;;17.83;9.98;;;;;;;-144.47;92.56;52637.63;5050174;28;20437;-67
2023/06/30 01:20:33;;;;;;;17.85;10.00;;;;;;;-144.47;92.04;52609.81;5058172;28;20031;-67
2023/06/30 01:23:09;;;;;;;18.00;9.90;;;;;;;-144.47;91.31;52623.72;5054335;28;20017;-65
2023/06/30 01:25:35;;;;;;;17.00;9.43;;;;;;;-144.47;90.28;52633.66;5048524;28;20028;-69
2023/06/30 01:28:02;;;;;;;17.52;9.75;;;;;;;-144.47;90.75;52615.78;5054192;28;20024;-66
2023/06/30 01:30:29;;;;;;;17.13;9.68;;;;;;;-144.47;90.81;52617.75;5055141;28;20024;-70
2023/06/30 01:32:56;;;;;;;19.20;9.93;;;;;;;-144.47;91.24;52615.78;5062879;28;20049;-69
2023/06/30 01:35:26;;;;;;;17.10;10.02;;;;;;;-144.47;90.54;52611.81;5043162;28;20035;-70
2023/06/30 01:37:52;;;;;;;20.05;9.60;;;;;;;-144.47;90.38;52611.81;5045132;28;20055;-65
2023/06/30 01:40:18;;;;;;;19.00;10.65;;;;;;;-144.47;90.42;52613.78;5053578;28;20100;-71
2023/06/30 01:42:45;;;;;;;18.65;9.50;;;;;;;-144.47;90.41;52633.66;5067787;28;20124;-68
2023/06/30 01:45:11;;;;;;;15.38;9.07;;;;;;;-144.47;90.46;52629.69;5067291;28;20046;-69
2023/06/30 01:47:37;;;;;;;16.20;9.35;;;;;;;-144.47;90.20;52595.91;5034629;28;20043;-68
2023/06/30 01:50:03;;;;;;;18.27;9.98;;;;;;;-144.47;89.94;52597.91;5061060;28;20114;-69
2023/06/30 01:52:29;;;;;;;16.15;8.82;;;;;;;-144.47;90.18;52617.75;5033133;28;20112;-70
2023/06/30 01:54:55;;;;;;;16.38;8.32;;;;;;;-144.47;89.92;52599.88;5048023;28;20060;-69
2023/06/30 01:57:20;;;;;;;18.95;9.52;;;;;;;-144.47;89.57;52584.00;5054265;28;20039;-68
2023/06/30 01:59:45;;;;;;;18.00;9.23;;;;;;;-144.47;90.17;52633.66;5067673;28;20048;-68
2023/06/30 02:02:11;;;;;;;18.67;9.30;;;;;;;-144.47;90.80;52625.72;5067848;28;20032;-67
2023/06/30 02:04:37;;;;;;;18.42;10.07;;;;;;;-144.47;91.22;52611.81;5067524;28;20024;-68
2023/06/30 02:07:02;;;;;;;22.10;10.88;;;;;;;-144.47;91.48;52629.69;5048509;28;20082;-69
2023/06/30 02:09:29;;;;;;;17.45;9.77;;;;;;;-144.47;91.38;52613.78;5053976;28;20096;-69
2023/06/30 02:11:54;;;;;;;18.75;9.80;;;;;;;-144.47;91.93;52623.72;5061015;28;20522;-69
2023/06/30 02:14:20;;;;;;;16.63;9.70;;;;;;;-144.47;92.08;52633.66;5047033;28;20045;-67
2023/06/30 02:16:45;;;;;;;24.30;10.40;;;;;;;-144.47;92.24;52621.72;5066883;28;20017;-69
2023/06/30 02:19:10;;;;;;;20.88;10.05;;;;;;;-144.47;91.68;52607.84;5067245;28;20572;-66
2023/06/30 02:21:36;;;;;;;19.50;10.50;;;;;;;-144.47;92.16;52609.81;5043024;28;20024;-69
2023/06/30 02:24:01;;;;;;;19.55;9.93;;;;;;;-144.47;92.32;52621.72;5058942;28;20039;-65
2023/06/30 02:26:26;;;;;;;19.58;9.73;;;;;;;-144.47;91.84;52617.75;5067077;28;20020;-69
2023/06/30 02:28:52;;;;;;;20.73;9.38;;;;;;;-144.47;91.49;52617.75;5058505;28;20363;-69
2023/06/30 02:31:17;;;;;;;17.13;9.75;;;;;;;-144.47;92.60;52607.84;5064066;28;20431;-69
2023/06/30 02:33:42;;;;;;;15.95;9.05;;;;;;;-144.47;91.83;52633.66;5053813;28;20410;-71
2023/06/30 02:36:08;;;;;;;15.57;8.82;;;;;;;-144.47;91.66;52605.84;5060095;28;20024;-69
2023/06/30 02:38:33;;;;;;;16.60;8.68;;;;;;;-144.47;91.30;52621.72;5064206;28;20024;-68
2023/06/30 02:40:59;;;;;;;16.55;9.07;;;;;;;-144.47;91.22;52585.97;5057546;28;20028;-66
2023/06/30 02:43:24;;;;;;;15.25;8.13;;;;;;;-144.47;91.29;52621.72;5070579;28;20053;-69
2023/06/30 02:45:50;;;;;;;18.88;8.95;;;;;;;-144.47;90.60;52627.69;5070564;28;20115;-66
2023/06/30 02:48:18;;;;;;;14.95;8.32;;;;;;;-144.47;90.17;52621.72;5059759;28;20017;-69
2023/06/30 02:50:44;;;;;;;15.13;8.20;;;;;;;-144.47;89.95;52603.84;5063974;28;20447;-69
2023/06/30 02:53:09;;;;;;;14.73;7.93;;;;;;;-144.47;89.81;52609.81;5043842;28;20461;-67
2023/06/30 02:55:36;;;;;;;17.02;8.15;;;;;;;-144.47;89.87;52627.69;5056898;28;20016;-68
2023/06/30 02:58:02;;;;;;;17.75;8.57;;;;;;;-144.47;90.17;52609.81;5070672;28;20058;-68
2023/06/30 03:00:27;;;;;;;20.98;8.82;;;;;;;-144.47;90.10;52611.81;5070366;28;20020;-70
2023/06/30 03:02:52;;;;;;;15.32;8.15;;;;;;;-144.47;89.91;52625.72;5070543;28;20043;-70
2023/06/30 03:05:18;;;;;;;17.42;8.60;;;;;;;-144.47;90.26;52633.66;5069533;28;20032;-68
2023/06/30 03:07:43;;;;;;;15.15;8.38;;;;;;;-144.47;90.08;52651.53;5069205;28;20070;-70
2023/06/30 03:10:09;;;;;;;16.50;8.55;;;;;;;-144.47;89.41;52609.81;5070020;28;20024;-66
2023/06/30 03:12:34;;;;;;;21.63;9.18;;;;;;;-144.47;89.27;52617.75;5058303;28;20059;-71
2023/06/30 03:14:59;;;;;;;14.35;7.60;;;;;;;-144.47;89.31;52613.78;5068381;28;20060;-68
2023/06/30 03:17:25;;;;;;;12.10;7.30;;;;;;;-144.47;89.47;52637.63;5056959;28;20029;-69
2023/06/30 03:19:50;;;;;;;15.80;7.55;;;;;;;-144.47;89.25;52633.66;5068496;28;20020;-69
2023/06/30 03:22:15;;;;;;;16.40;8.20;;;;;;;-144.47;88.58;52641.59;5070610;28;20111;-71
2023/06/30 03:24:41;;;;;;;17.92;8.05;;;;;;;-144.47;88.49;52611.81;5055926;28;20024;-68
2023/06/30 03:27:06;;;;;;;19.52;7.90;;;;;;;-144.47;88.50;52621.72;5070142;28;20107;-67
2023/06/30 03:29:31;;;;;;;14.80;7.57;;;;;;;-144.47;88.36;52627.69;5069545;28;20028;-70
2023/06/30 03:31:57;;;;;;;12.85;7.22;;;;;;;-144.47;87.91;52621.72;5069965;28;20109;-69
2023/06/30 03:34:22;;;;;;;14.30;8.05;;;;;;;-144.47;88.11;52629.69;5053602;28;20039;-69
2023/06/30 03:36:49;;;;;;;17.33;8.10;;;;;;;-144.47;88.99;52613.78;5057199;28;20013;-66
2023/06/30 03:39:14;;;;;;;14.15;7.45;;;;;;;-144.47;88.78;52653.50;5066616;28;20107;-69
2023/06/30 03:41:39;;;;;;;13.82;7.75;;;;;;;-144.47;88.36;52633.66;5070128;28;20111;-69
2023/06/30 03:44:05;;;;;;;15.00;8.20;;;;;;;-144.47;88.73;52639.59;5069359;28;20489;-68
2023/06/30 03:46:30;;;;;;;15.70;7.78;;;;;;;-144.47;88.77;52633.66;5059009;28;20112;-67
2023/06/30 03:48:55;;;;;;;14.70;7.97;;;;;;;-144.47;89.57;52611.81;5053257;28;20020;-69
2023/06/30 03:51:21;;;;;;;20.38;8.35;;;;;;;-144.47;89.83;52629.69;5064034;28;20068;-71
2023/06/30 03:53:46;;;;;;;15.55;8.63;;;;;;;-144.47;91.02;52641.59;5048083;28;20013;-69
2023/06/30 03:56:12;;;;;;;17.23;9.05;;;;;;;-144.47;91.67;52603.84;5060224;28;20462;-70
2023/06/30 03:58:38;;;;;;;17.58;9.63;;;;;;;-144.47;92.28;52635.63;5069249;28;20111;-68
2023/06/30 04:01:03;;;;;;;28.02;10.05;;;;;;;-144.47;92.88;52617.75;5069469;28;20381;-69
2023/06/30 04:03:28;;;;;;;17.33;9.43;;;;;;;-144.47;93.52;52631.66;5068419;28;20564;-70
2023/06/30 04:05:54;;;;;;;20.00;11.10;;;;;;;-144.47;94.10;52609.81;5059099;28;20550;-67
2023/06/30 04:08:19;;;;;;;18.55;10.65;;;;;;;-144.47;94.63;52643.56;5052052;28;20020;-66
2023/06/30 04:10:45;;;;;;;19.48;10.63;;;;;;;-144.47;95.12;52661.44;5059245;28;20028;-71
2023/06/30 04:13:10;;;;;;;25.00;11.52;;;;;;;-144.47;95.62;52617.75;5048873;28;20108;-68
2023/06/30 04:15:36;;;;;;;21.20;10.70;;;;;;;-144.47;95.91;52615.78;5058108;28;20120;-65
2023/06/30 04:18:02;;;;;;;18.00;10.35;;;;;;;-144.47;96.78;52627.69;5036795;28;20028;-66
2023/06/30 04:20:28;;;;;;;21.58;11.27;;;;;;;-144.47;97.14;52637.63;5068624;28;20020;-67
2023/06/30 04:22:53;;;;;;;21.83;10.50;;;;;;;-144.47;97.32;52631.66;5068590;28;20029;-68
2023/06/30 04:25:19;;;;;;;23.77;10.60;;;;;;;-144.47;97.64;52641.59;5050507;28;20539;-67
2023/06/30 04:27:44;;;;;;;19.92;11.13;;;;;;;-144.47;97.71;52623.72;5052061;28;20029;-69
2023/06/30 04:30:10;;;;;;;22.40;10.75;;;;;;;-144.47;98.58;52633.66;5058183;28;20142;-71
2023/06/30 04:32:36;;;;;;;23.92;12.25;;;;;;;-144.47;98.43;52625.72;5050924;28;20458;-67
2023/06/30 04:35:01;;;;;;;21.20;11.52;;;;;;;-144.47;98.46;52613.78;5050079;28;20339;-69
2023/06/30 04:37:29;;;;;;;19.92;11.40;;;;;;;-144.47;97.86;52635.63;5058140;28;20086;-70
2023/06/30 04:39:56;;;;;;;28.95;12.45;;;;;;;-144.47;98.46;52643.56;5060538;28;20032;-68
2023/06/30 04:42:22;;;;;;;20.55;11.55;;;;;;;-144.47;98.62;52627.69;5052530;28;20135;-68
2023/06/30 04:44:47;;;;;;;24.67;11.05;;;;;;;-144.47;98.44;52617.75;5048359;28;20029;-67
2023/06/30 04:47:12;;;;;;;29.80;11.73;;;;;;;-144.47;98.48;52641.59;5064736;28;21230;-68
2023/06/30 04:49:38;;;;;;;21.23;10.32;;;;;;;-144.47;98.00;52645.56;5057090;28;20115;-68
2023/06/30 04:52:04;;;;;;;27.77;12.95;;;;;;;-144.47;97.84;52611.81;5045607;28;20498;-69
2023/06/30 04:54:30;;;;;;;21.38;11.63;;;;;;;-144.47;97.52;52641.59;5058021;28;20031;-69
2023/06/30 04:56:56;;;;;;;23.13;11.48;;;;;;;-144.47;97.35;52641.59;5067515;28;20031;-67
2023/06/30 04:59:22;;;;;;;21.75;11.52;;;;;;;-144.47;96.94;52645.56;5062212;28;20057;-71
2023/06/30 05:01:47;;;;;;;24.33;12.15;;;;;;;-144.47;96.35;52613.78;5064504;28;20032;-70
2023/06/30 05:04:12;;;;;;;23.27;10.70;;;;;;;-144.47;96.36;52613.78;5048848;28;20032;-71
2023/06/30 05:06:38;;;;;;;22.42;11.13;;;;;;;-144.47;95.89;52613.78;5048247;28;20046;-71
2023/06/30 05:09:03;;;;;;;21.35;10.90;;;;;;;-144.47;95.06;52617.75;5047212;28;20374;-69
2023/06/30 05:11:28;;;;;;;26.80;11.68;;;;;;;-144.47;94.85;52621.72;5061073;28;20494;-71
2023/06/30 05:13:54;;;;;;;20.58;11.32;;;;;;;-144.47;94.72;52633.66;5046063;28;20420;-67
2023/06/30 05:16:19;;;;;;;27.60;12.05;;;;;;;-144.47;93.96;52617.75;5025054;28;20443;-70
2023/06/30 05:18:45;;;;;;;17.08;10.63;;;;;;;-144.47;93.74;52597.91;5045472;28;20025;-67
2023/06/30 05:21:10;;;;;;;22.30;10.77;;;;;;;-144.47;94.67;52629.69;5049149;28;20040;-70
2023/06/30 05:23:35;;;;;;;20.00;11.25;;;;;;;-144.47;94.60;52637.63;5046110;28;20021;-70
2023/06/30 05:26:01;;;;;;;23.40;10.93;;;;;;;-144.47;94.29;52645.56;5056143;28;20475;-71
2023/06/30 05:28:26;;;;;;;21.88;11.35;;;;;;;-144.47;94.23;52619.75;5047264;28;20037;-70
2023/06/30 05:30:52;;;;;;;21.48;10.82;;;;;;;-144.47;93.46;52641.59;5055969;28;20380;-66
2023/06/30 05:33:17;;;;;;;20.40;11.10;;;;;;;-144.47;92.39;52639.59;5055460;28;20041;-67
2023/06/30 05:35:42;;;;;;;25.85;11.02;;;;;;;-144.47;92.83;52629.69;5050666;28;20435;-69
2023/06/30 05:38:08;;;;;;;22.23;11.23;;;;;;;-144.47;92.67;52627.69;5049766;28;20025;-68
2023/06/30 05:40:33;;;;;;;19.42;10.65;;;;;;;-144.47;92.57;52617.75;5052968;28;20418;-69
2023/06/30 05:42:58;;;;;;;19.77;9.80;;;;;;;-144.47;92.27;52637.63;5047270;28;20128;-69
2023/06/30 05:45:25;;;;;;;24.70;10.23;;;;;;;-144.47;91.76;52633.66;5052700;28;20020;-67
2023/06/30 05:47:50;;;;;;;19.10;9.90;;;;;;;-144.47;90.15;52661.44;5068025;28;20505;-69
2023/06/30 05:50:17;;;;;;;26.55;10.77;;;;;;;-144.47;90.00;52661.44;5053914;28;20103;-70
2023/06/30 05:52:42;;;;;;;20.00;9.43;;;;;;;-144.47;89.50;52651.53;5049775;28;20036;-68
2023/06/30 05:55:08;;;;;;;23.58;10.52;;;;;;;-144.47;89.78;52657.47;5046566;28;20029;-73
2023/06/30 05:57:33;;;;;;;19.17;10.75;;;;;;;-144.47;89.29;52653.50;5055819;28;20068;-67
2023/06/30 05:59:58;;;;;;;22.00;11.27;;;;;;;-144.47;88.85;52643.56;5053717;28;20036;-72
2023/06/30 06:02:24;;;;;;;29.42;11.38;;;;;;;-144.47;88.16;52623.72;5069538;28;20036;-67
2023/06/30 06:04:52;;;;;;;20.33;9.98;;;;;;;-144.47;87.52;52649.53;5068831;28;20020;-70
2023/06/30 06:07:17;;;;;;;20.13;10.43;;;;;;;-144.47;86.15;52655.50;5059527;28;20108;-70
2023/06/30 06:09:43;;;;;;;22.88;10.85;;;;;;;-144.47;84.51;52635.63;5057730;28;20188;-67
2023/06/30 06:12:08;;;;;;;25.10;10.90;;;;;;;-144.47;83.76;52629.69;5071411;28;20056;-71
2023/06/30 06:14:34;;;;;;;16.33;9.20;;;;;;;-144.47;83.49;52643.56;5070841;28;20496;-66
2023/06/30 06:19:31;;;;;;;20.80;11.57;;;;;;;-144.47;82.17;52613.78;5049608;28;20435;-69
2023/06/30 06:21:57;;;;;;;18.75;11.20;;;;;;;-144.47;82.97;52639.59;5061525;28;20024;-70
2023/06/30 06:24:22;;;;;;;24.75;11.32;;;;;;;-144.47;83.19;52649.53;5056740;28;20024;-70
2023/06/30 06:26:48;;;;;;;23.15;12.05;;;;;;;-144.47;83.84;52629.69;5052446;28;20104;-67
2023/06/30 06:29:18;;;;;;;24.00;12.05;;;;;;;-144.47;84.76;52643.56;5050281;28;20082;-73
2023/06/30 06:31:45;;;;;;;19.88;11.93;;;;;;;-144.47;85.17;52657.47;5048366;28;20036;-69
2023/06/30 06:34:10;;;;;;;18.55;11.20;;;;;;;-144.47;84.46;52685.28;5045942;28;20539;-68
2023/06/30 06:36:37;;;;;;;27.67;11.52;;;;;;;-144.47;85.10;52657.47;5041280;28;20082;-68
2023/06/30 06:39:02;;;;;;;21.83;11.57;;;;;;;-144.47;84.58;52613.78;5050194;28;20025;-69
2023/06/30 06:41:28;;;;;;;23.27;12.23;;;;;;;-144.47;84.86;52649.53;5052138;28;20469;-72
2023/06/30 06:43:53;;;;;;;23.05;12.00;;;;;;;-144.47;84.69;52661.44;5050604;28;20021;-71
2023/06/30 06:46:18;;;;;;;18.63;11.63;;;;;;;-144.47;84.91;52657.47;5051929;28;20081;-68
2023/06/30 06:48:44;;;;;;;23.02;11.88;;;;;;;-144.47;84.71;52669.41;5038795;28;20082;-67
2023/06/30 06:51:09;;;;;;;20.10;12.27;;;;;;;-144.47;83.76;52655.50;5049362;28;20016;-69
2023/06/30 06:53:35;;;;;;;22.83;11.82;;;;;;;-144.47;82.89;52631.66;5048948;28;20395;-69
2023/06/30 06:56:01;;;;;;;21.88;11.50;;;;;;;-144.47;82.77;52629.69;5046003;28;20061;-69
2023/06/30 06:58:30;;;;;;;23.25;11.82;;;;;;;-144.47;84.74;52665.44;5052864;28;20044;-69
2023/06/30 07:00:56;;;;;;;24.15;12.55;;;;;;;-144.47;84.78;52637.63;5049768;28;20032;-70
2023/06/30 07:03:21;;;;;;;23.60;12.57;;;;;;;-144.47;84.40;52655.50;5047877;28;20041;-69
2023/06/30 07:05:47;;;;;;;19.40;11.52;;;;;;;-144.47;81.07;52641.59;5050452;28;20509;-72
2023/06/30 07:08:14;;;;;;;19.95;10.77;;;;;;;-144.47;79.93;52655.50;5045375;28;20448;-71
2023/06/30 07:10:40;;;;;;;23.55;10.77;;;;;;;-144.47;78.97;52681.31;5044331;28;20034;-71
2023/06/30 07:13:06;;;;;;;20.10;10.90;;;;;;;-144.47;79.02;52665.44;5036342;28;20024;-70
2023/06/30 07:15:32;;;;;;;21.15;11.65;;;;;;;-144.47;78.96;52659.47;5036740;28;20116;-69
2023/06/30 07:17:57;;;;;;;24.75;12.18;;;;;;;-144.47;78.11;52639.59;5051483;28;20052;-68
2023/06/30 07:20:24;;;;;;;25.17;11.52;;;;;;;-144.47;77.77;52667.41;5051516;28;20078;-69
2023/06/30 07:22:51;;;;;;;21.33;11.45;;;;;;;-144.47;76.85;52675.34;5052095;28;20029;-69
2023/06/30 07:25:16;;;;;;;23.17;11.80;;;;;;;-144.47;77.43;52685.28;5051119;28;20343;-69
2023/06/30 07:27:49;;;;;;;25.80;11.93;;;;;;;-144.47;78.22;52635.63;5051282;28;20021;-72
2023/06/30 07:30:16;;;;;;;27.42;12.10;;;;;;;-144.47;78.46;52669.41;5044311;28;20030;-68
2023/06/30 07:32:41;;;;;;;19.02;11.25;;;;;;;-144.47;76.90;52649.53;5042386;28;20025;-71
2023/06/30 07:35:07;;;;;;;27.02;12.10;;;;;;;-144.47;76.68;52655.50;5050602;28;20039;-70
2023/06/30 07:37:33;;;;;;;22.58;12.18;;;;;;;-144.47;76.45;52669.41;5051040;28;20025;-69
2023/06/30 07:39:58;;;;;;;23.45;11.90;;;;;;;-144.47;76.82;52689.25;5051041;28;20120;-69
2023/06/30 07:42:23;;;;;;;20.85;11.50;;;;;;;-144.47;76.83;52669.41;5051229;28;20028;-70
2023/06/30 07:44:49;;;;;;;29.23;12.43;;;;;;;-144.47;77.03;52663.44;5051064;28;20025;-68
2023/06/30 07:47:16;;;;;;;22.40;12.18;;;;;;;-144.47;78.42;52645.56;5051229;28;20028;-68
2023/06/30 07:49:41;;;;;;;24.13;11.85;;;;;;;-144.47;77.18;52653.50;5050978;28;20557;-69
2023/06/30 07:52:07;;;;;;;24.60;11.38;;;;;;;-144.47;77.72;52649.53;5051099;28;20068;-71
2023/06/30 07:54:32;;;;;;;23.17;11.98;;;;;;;-144.47;77.26;52663.44;5050216;28;20467;-70
2023/06/30 07:56:57;;;;;;;22.27;11.73;;;;;;;-144.47;75.22;52655.50;5050793;28;20104;-71
2023/06/30 07:59:23;;;;;;;20.50;12.68;;;;;;;-144.47;73.12;52669.41;5050009;28;20051;-70
2023/06/30 08:01:48;;;;;;;21.13;11.98;;;;;;;-144.47;71.54;52675.34;5050576;28;20036;-69
2023/06/30 08:04:14;;;;;;;19.23;10.60;;;;;;;-144.47;70.59;52685.28;5050389;28;20022;-68
2023/06/30 08:06:39;;;;;;;20.55;10.25;;;;;;;-144.47;71.09;52683.31;5050923;28;20060;-66
2023/06/30 08:09:04;;;;;;;25.00;12.02;;;;;;;-144.47;71.32;52677.34;5050903;28;20507;-68
2023/06/30 08:11:30;;;;;;;19.17;10.63;;;;;;;-144.47;70.09;52665.44;5050547;28;20082;-70
2023/06/30 08:13:56;;;;;;;21.65;11.30;;;;;;;-144.47;70.38;52653.50;5050096;28;20060;-70
2023/06/30 08:16:22;;;;;;;26.85;11.27;;;;;;;-144.47;69.89;52673.38;5050380;28;20017;-73
2023/06/30 08:18:48;;;;;;;26.02;11.00;;;;;;;-144.47;69.62;52681.31;5050173;28;20494;-69
2023/06/30 08:21:13;;;;;;;28.10;12.23;;;;;;;-144.47;70.52;52693.22;5049208;28;20020;-69
2023/06/30 08:23:39;;;;;;;20.73;12.15;;;;;;;-144.47;71.49;52669.41;5050045;28;20049;-68
2023/06/30 08:26:04;;;;;;;20.58;12.32;;;;;;;-144.47;72.69;52677.34;5050100;28;20043;-69
2023/06/30 08:28:30;;;;;;;23.30;12.05;;;;;;;-144.47;72.51;52685.28;5049985;28;20031;-67
2023/06/30 08:30:55;;;;;;;22.48;12.35;;;;;;;-144.47;72.56;52665.44;5050572;28;20025;-70
2023/06/30 08:33:30;;;;;;;20.08;12.02;;;;;;;-144.47;71.31;52689.25;5045316;28;20021;-71
2023/06/30 08:35:55;;;;;;;22.45;11.65;;;;;;;-144.47;69.69;52663.44;5047603;28;20025;-69
2023/06/30 08:38:21;;;;;;;24.30;12.13;;;;;;;-144.47;68.37;52673.38;5050417;28;20025;-70
2023/06/30 08:40:47;;;;;;;23.23;11.68;;;;;;;-144.47;67.98;52679.31;5050180;28;20032;-70
2023/06/30 08:43:12;;;;;;;23.90;12.65;;;;;;;-144.47;67.44;52685.28;5050025;28;20020;-69
2023/06/30 08:45:43;;;;;;;21.92;11.65;;;;;;;-144.47;65.49;52679.31;5049864;28;20102;-69
2023/06/30 08:48:12;;;;;;;21.35;12.15;;;;;;;-144.47;67.12;52681.31;5050504;28;20024;-68
2023/06/30 08:50:38;;;;;;;24.50;12.38;;;;;;;-144.47;68.18;52675.34;5049524;28;20120;-69
2023/06/30 08:53:04;;;;;;;24.80;12.98;;;;;;;-144.47;67.27;52693.22;5038119;28;20025;-73
2023/06/30 08:55:30;;;;;;;23.15;11.35;;;;;;;-144.47;65.84;52701.19;5049141;28;20383;-69
2023/06/30 08:57:56;;;;;;;26.90;13.25;;;;;;;-144.47;65.24;52693.22;5048106;28;20028;-68
2023/06/30 09:00:26;;;;;;;26.92;12.05;;;;;;;-144.47;65.19;52691.25;5049697;28;20021;-71
2023/06/30 09:02:53;;;;;;;25.48;11.82;;;;;;;-144.47;65.22;52671.38;5049867;28;20386;-67
2023/06/30 09:05:20;;;;;;;21.85;12.68;;;;;;;-144.47;64.04;52673.38;5050094;28;20020;-69
2023/06/30 09:07:53;;;;;;;18.20;10.63;;;;;;;-144.47;63.48;52679.31;5049995;28;20414;-69
2023/06/30 09:10:25;;;;;;;27.15;12.00;;;;;;;-144.47;62.82;52711.09;5049830;28;20024;-69
2023/06/30 09:12:54;;;;;;;18.70;10.77;;;;;;;-144.47;62.96;52699.19;5049556;28;20028;-70
2023/06/30 09:15:20;;;;;;;23.60;12.18;;;;;;;-144.47;62.50;52697.19;5049784;28;20048;-70
2023/06/30 09:17:46;;;;;;;23.98;11.95;;;;;;;-144.47;62.02;52707.13;5049572;28;20021;-69
2023/06/30 09:20:12;;;;;;;26.92;12.20;;;;;;;-144.47;60.20;52669.41;5049553;28;20500;-71
2023/06/30 09:22:42;;;;;;;22.55;12.60;;;;;;;-144.47;60.84;52697.19;5047233;28;20032;-69
2023/06/30 09:25:28;;;;;;;19.52;11.05;;;;;;;-144.47;61.65;52705.16;5049080;28;20025;-69
2023/06/30 09:27:55;;;;;;;22.65;11.50;;;;;;;-144.47;61.54;52721.03;5026630;28;20029;-68
2023/06/30 09:30:49;;;;;;;21.00;11.93;;;;;;;-144.47;62.37;52683.31;5049081;28;20387;-66
2023/06/30 09:33:17;;;;;;;27.15;12.95;;;;;;;-144.47;62.91;52691.25;5025943;28;20037;-68
2023/06/30 09:35:44;;;;;;;26.30;13.90;;;;;;;-144.47;65.15;52659.47;5047537;28;20031;-69
2023/06/30 09:38:15;;;;;;;23.88;13.60;;;;;;;-144.47;66.01;52665.44;5047190;28;20505;-69
2023/06/30 09:40:49;;;;;;;26.42;14.60;;;;;;;-144.47;66.86;52705.16;5048860;28;20033;-65
2023/06/30 09:43:17;;;;;;;25.85;15.23;;;;;;;-144.47;67.46;52699.19;5049251;28;20036;-70
2023/06/30 09:45:44;;;;;;;;;;;;;;;-144.47;68.14;52657.47;5048972;28;20021;-66
2023/06/30 09:48:10;;;;;;;26.63;14.43;;;;;;;-144.47;70.20;52667.41;5044507;28;19920;-68
2023/06/30 09:50:36;;;;;;;25.95;14.20;;;;;;;-144.47;70.56;52679.31;5043430;28;20025;-68
2023/06/30 09:53:01;;;;;;;25.98;14.98;;;;;;;-144.47;73.55;52687.28;5048437;28;20105;-66
2023/06/30 09:55:26;;;;;;;33.97;15.07;;;;;;;-144.47;78.41;52689.25;5030672;28;20211;-70
2023/06/30 09:57:55;;;;;;;30.33;15.82;;;;;;;-144.47;80.46;52647.56;5048794;28;20029;-66
2023/06/30 10:00:22;;;;;;;31.35;15.60;;;;;;;-144.47;83.28;52679.31;5048227;28;20099;-69
2023/06/30 10:03:05;;;;;;;33.45;16.77;;;;;;;-144.47;83.49;52673.38;5022489;28;20526;-68
2023/06/30 10:05:31;;;;;;;31.08;17.02;;;;;;;-144.47;85.00;52677.34;5040367;28;20029;-70
2023/06/30 10:08:01;;;;;;;32.80;16.20;;;;;;;-144.47;87.04;52657.47;5037436;28;20104;-68
2023/06/30 10:10:28;;;;;;;25.52;15.23;;;;;;;-144.47;88.39;52663.44;5047512;28;20064;-70
2023/06/30 10:12:55;;;;;;;29.75;15.95;;;;;;;-144.47;89.53;52683.31;5048563;28;20134;-69
2023/06/30 10:15:21;;;;;;;31.35;16.17;;;;;;;-144.47;86.42;52677.34;5046800;28;20056;-67
2023/06/30 10:17:47;;;;;;;32.03;17.05;;;;;;;-144.47;85.33;52659.47;5048539;28;20057;-65
2023/06/30 10:20:12;;;;;;;29.17;15.25;;;;;;;-144.47;84.24;52661.44;5048621;28;20013;-67
2023/06/30 10:22:38;;;;;;;29.38;15.52;;;;;;;-144.47;84.87;52673.38;5048670;28;20094;-69
2023/06/30 10:25:08;;;;;;;32.28;15.85;;;;;;;-144.47;83.02;52657.47;5048095;28;20106;-69
2023/06/30 10:27:35;;;;;;;30.55;15.73;;;;;;;-144.47;83.56;52693.22;5048440;28;20364;-67
2023/06/30 10:30:01;;;;;;;31.15;16.58;;;;;;;-144.47;80.72;52673.38;5047932;28;20033;-70
2023/06/30 10:32:27;;;;;;;31.10;16.90;;;;;;;-144.47;79.72;52673.38;5049859;28;20536;-66
2023/06/30 10:34:53;;;;;;;31.83;16.50;;;;;;;-144.47;79.44;52691.25;5046406;28;20083;-70
2023/06/30 10:37:19;;;;;;;31.85;16.40;;;;;;;-144.47;79.46;52679.31;5048051;28;20016;-69
2023/06/30 10:39:46;;;;;;;35.38;17.20;;;;;;;-144.47;82.01;52689.25;5047112;28;20039;-70
2023/06/30 10:42:12;;;;;;;36.20;18.17;;;;;;;-144.47;81.52;52671.38;5047470;28;20394;-66
2023/06/30 10:44:43;;;;;;;30.63;17.40;;;;;;;-144.47;81.03;52697.19;5042246;28;20029;-67
2023/06/30 10:47:09;;;;;;;33.15;17.75;;;;;;;-144.47;80.50;52685.28;5047506;28;20052;-71
2023/06/30 10:49:41;;;;;;;34.58;17.90;;;;;;;-144.47;81.08;52687.28;5035891;28;20025;-69
2023/06/30 10:52:08;;;;;;;34.50;19.08;;;;;;;-144.47;81.51;52673.38;5048371;28;20029;-68
2023/06/30 10:54:52;;;;;;;33.58;18.05;;;;;;;-144.47;80.46;52669.41;5050519;28;20115;-66
2023/06/30 10:57:19;;;;;;;36.72;18.10;;;;;;;-144.47;79.83;52673.38;5050137;28;20421;-70
2023/06/30 10:59:47;;;;;;;46.35;18.30;;;;;;;-144.47;80.33;52669.41;5051258;28;20094;-66
2023/06/30 11:02:18;;;;;;;35.42;17.92;;;;;;;-144.47;79.66;52675.34;5052160;28;20045;-69
2023/06/30 11:04:45;;;;;;;35.85;18.58;;;;;;;-144.47;80.26;52683.31;5051386;28;20013;-69